x

Cape Edgecumbe - 25nm Ssw Of Cape Edgecumbe, Ak (46084) Wave Buoy

11:50pm - Fri 30th Sep 2016 All times are AKDT. -8 hours from GMT.

  • Sig Wave height 3.9ft
  • Swell Direction
  • Peak Period 6s
  • Average Period 5s
  • Wind
    18mph, 20mph gusts
  • Sea Temp 52°f
  • Air Temp 53°f
  • Sea Pressure 1019.3mb
  • Cape Edgecumbe - 25nm Ssw Of Cape Edgecumbe, Ak
  • Cape Edgecumbe - 25nm Ssw Of Cape Edgecumbe, Ak

More Historic Weather Station data

Upgrade to MSW Pro to gain access to the past 30 days of data for over 8000 Wavebouys and Weather Stations around the globe.

Join Pro

Comparision Forecast

View Surf forecast
   
Fri 09/30 11:50pm 4ft 6s 5s 18 20 mph 1019.3mb 52f 53f
10:50pm 4ft 6s 5s 18 20 mph 1019.2mb 52f 53f
9:50pm 4ft 6s 5s 18 22 mph 1019.6mb 53f 54f
8:50pm 4.5ft 7s 5s 20 25 mph 1019.5mb 53f 54f
7:50pm 4.5ft 7s 5s 22 27 mph 1019.3mb 53f 54f
6:50pm 5ft 7s 5s 22 27 mph 1019.3mb 53f 55f
5:50pm 5ft 7s 5s 22 27 mph 1019.2mb 54f 55f
4:50pm 6ft 7s 5s 22 25 mph 1019.2mb 54f 55f
3:50pm 6ft 7s 5s 25 29 mph 1018.9mb 53f 55f
2:50pm 6ft 7s 5s 25 29 mph 1019.4mb 53f 55f
1:50pm 6ft 7s 5s 22 27 mph 1019.5mb 53f 54f
12:50pm 5.5ft 6s 5s 20 25 mph 1020.2mb 54f 54f
11:50am 6ft 7s 5s 20 25 mph 1020.7mb 54f 54f
10:50am 6ft 7s 5s 27 29 mph 1020.7mb 53f 53f
9:50am 7ft 7s 5s 29 36 mph 1020.6mb 54f 53f
8:50am 7ft 7s 5s 34 40 mph 1020.5mb 54f 53f
7:50am 7ft 7s 5s 34 40 mph 1020.6mb 54f 53f
6:50am 5.5ft 6s 5s 31 38 mph 1021.1mb 54f 53f
5:50am 5ft 6s 5s 31 40 mph 1021.1mb 54f 53f
4:50am 5ft 5s 5s 25 31 mph 1021.8mb 53f 54f
3:50am 5ft 6s 5s 31 36 mph 1021.4mb 54f 54f
2:50am 5ft 5s 5s 27 31 mph 1021.8mb 54f 55f
1:50am 4.5ft 6s 5s 25 31 mph 1021.8mb 54f 55f
12:50am 4.5ft 6s 5s 25 31 mph 1021.8mb 54f 55f
Thu 09/29 11:50pm 4.5ft 6s 5s 22 27 mph 1022mb 54f 55f
10:50pm 4.5ft 9s 5s 20 22 mph 1022mb 54f 55f
9:50pm 5ft 9s 5s 16 20 mph 1022.4mb 54f 55f
8:50pm 5ft 6s 5s 20 22 mph 1022.4mb 54f 55f
7:50pm 5ft 6s 5s 20 22 mph 1022.4mb 54f 54f
6:50pm 4.5ft 10s 5s 20 25 mph 1022.3mb 54f 54f
5:50pm 4.5ft 6s 5s 18 22 mph 1022.2mb 54f 54f
4:50pm 5ft 6s 5s 20 22 mph 1022.4mb 54f 54f
3:50pm 5ft 6s 5s 20 22 mph 1022.6mb 54f 54f
2:50pm 5.5ft 6s 5s 20 22 mph 1022.9mb 54f 54f
1:50pm 5ft 6s 5s 22 25 mph 1023.1mb 54f 54f
12:50pm 5ft 6s 5s 20 25 mph 1023.3mb 54f 53f
11:50am 5ft 6s 5s 20 25 mph 1023.5mb 54f 53f
10:50am 5ft 6s 5s 22 27 mph 1023.7mb 54f 53f
9:50am 5ft 6s 5s 20 25 mph 1023.9mb 54f 53f
8:50am 5ft 6s 5s 20 25 mph 1024.2mb 54f 53f
7:50am 5.5ft 6s 5s 20 27 mph 1024.3mb 54f 53f
6:50am 5ft 6s 5s 20 22 mph 1024.2mb 54f 53f
5:50am 5.5ft 6s 5s 22 25 mph 1024mb 54f 53f
4:50am 5ft 6s 5s 22 27 mph 1024.1mb 54f 53f
3:50am 4.5ft 11s 5s 22 27 mph 1024.1mb 54f 53f
2:50am 5ft 9s 5s 22 29 mph 1023.9mb 54f 53f
1:50am 5ft 5s 5s 22 25 mph 1023.8mb 54f 53f
12:50am 5ft 9s 6s 20 25 mph 1023.8mb 54f 53f
Wed 09/28 11:50pm 5ft 9s 5s 18 20 mph 1023.8mb 54f 53f
10:50pm 5ft 9s 6s 20 22 mph 1023.9mb 54f 54f
9:50pm 5ft 10s 6s 20 25 mph 1024mb 54f 54f
8:50pm 5ft 10s 6s 18 20 mph 1024mb 54f 54f
7:50pm 5ft 10s 6s 18 20 mph 1023.9mb 54f 54f
6:50pm 5ft 8s 6s 16 20 mph 1023.8mb 54f 54f
5:50pm 4.5ft 10s 7s 18 20 mph 1023.6mb 54f 54f
4:50pm 4.5ft 9s 7s 11 16 mph 1023.7mb 54f 54f
3:50pm 4ft 11s 7s 9 11 mph 1023.8mb 54f 54f
2:50pm 4.5ft 11s 6s 4 7 mph 1023.8mb 54f 54f
1:50pm 4.5ft 15s 6s 4 7 mph 1023.7mb 54f 53f
12:50pm 4.5ft 6s 5s 7 9 mph 1023.5mb 54f 53f
11:50am 4.5ft 15s 5s 9 11 mph 1023.1mb 54f 53f
10:50am 4.5ft 15s 5s 11 13 mph 1022.7mb 54f 53f
9:50am 4.5ft 6s 5s 11 16 mph 1022.4mb 54f 53f
8:50am 5ft 6s 5s 11 13 mph 1022mb 54f 53f
7:50am 5ft 6s 5s 13 16 mph 1021.6mb 54f 53f
6:50am 5ft 6s 6s 13 16 mph 1021.5mb 54f 51f
5:50am 5ft 7s 5s 13 16 mph 1021.4mb 54f 52f
4:50am 5.5ft 6s 5s 16 18 mph 1020.8mb 54f 53f
3:50am 6ft 6s 5s 16 18 mph 1020.6mb 54f 52f
2:50am 5.5ft 5s 5s 18 20 mph 1020.5mb 54f 51f
1:50am 4.5ft 8s 5s 22 27 mph 1020.1mb 54f 52f
12:50am 5ft 8s 5s 18 22 mph 1020.3mb 54f 51f
Tue 09/27 11:50pm 5ft 16s 5s 20 22 mph 1020.2mb 54f 52f
10:50pm 5ft 7s 5s 18 22 mph 1020.1mb 55f 51f
9:50pm 5ft 7s 5s 20 25 mph 1019.9mb 55f 53f
8:50pm 5ft 8s 5s 13 20 mph 1020.2mb 55f 52f
7:50pm 5ft 8s 6s 16 20 mph 1020.1mb 55f 52f
6:50pm 5ft 7s 6s 16 18 mph 1020mb 55f 53f
5:50pm 5ft 7s 6s 13 16 mph 1020.2mb 55f 53f
4:50pm 5ft 8s 6s 13 16 mph 1020.3mb 55f 52f
3:50pm 5ft 7s 6s 18 20 mph 1020.4mb 55f 52f
2:50pm 5ft 7s 6s 13 16 mph 1020.6mb 54f 52f
1:50pm 4.5ft 8s 6s 13
mph
1020.8mb 54f 52f
12:50pm 5ft 8s 7s 11 13 mph 1020.8mb 54f 51f
11:50am 5ft 7s 6s 13
mph
1020.7mb 54f 52f
10:50am 5ft 7s 6s 16 18 mph 1020.3mb 54f 52f
9:50am 4.5ft 7s 6s 13 18 mph 1020.2mb 53f 51f